Time;durP1;ratioP1;P1;durP2;ratioP2;P2;SDS_P1;SDS_P2;PMS_P1;PMS_P2;Temp;Humidity;BMP_temperature;BMP_pressure;BME280_temperature;BME280_humidity;BME280_pressure;Samples;Min_cycle;Max_cycle;Signal;HPM_P1;HPM_P2
2021/10/15 00:02:03;;;;;;;0.20;0.20;;;9.50;99.90;;;;;;5078656;28;20187;-81
2021/10/15 00:04:28;;;;;;;0.10;0.10;;;9.50;99.90;;;;;;5075303;28;20188;-81
2021/10/15 00:06:54;;;;;;;2.53;0.87;;;9.20;99.90;;;;;;5079020;28;20333;-81
2021/10/15 00:09:20;;;;;;;0.90;0.47;;;8.90;99.90;;;;;;5080208;28;20200;-81
2021/10/15 00:11:46;;;;;;;1.47;0.53;;;8.70;99.90;;;;;;5082755;28;20177;-80
2021/10/15 00:14:12;;;;;;;0.17;0.17;;;8.60;99.90;;;;;;5075844;28;20263;-81
2021/10/15 00:16:38;;;;;;;0.20;0.10;;;8.70;99.90;;;;;;5067658;28;20664;-81
2021/10/15 00:19:04;;;;;;;0.20;0.20;;;8.70;99.90;;;;;;5079105;28;20180;-81
2021/10/15 00:21:30;;;;;;;0.30;0.30;;;8.80;99.90;;;;;;5078120;28;20213;-82
2021/10/15 00:23:55;;;;;;;0.10;0.10;;;8.90;99.90;;;;;;5067892;28;20208;-81
2021/10/15 00:26:21;;;;;;;1.07;0.33;;;9.00;99.90;;;;;;5077790;28;20198;-81
2021/10/15 00:28:46;;;;;;;0.40;0.33;;;8.90;99.90;;;;;;5075607;28;20205;-81
2021/10/15 00:31:12;;;;;;;0.13;0.13;;;8.90;99.90;;;;;;5073950;28;20182;-81
2021/10/15 00:33:37;;;;;;;0.43;0.27;;;9.00;99.90;;;;;;5071360;28;20180;-81
2021/10/15 00:36:03;;;;;;;0.20;0.20;;;9.00;99.90;;;;;;5074398;28;20203;-81
2021/10/15 00:38:29;;;;;;;0.00;0.00;;;9.00;99.90;;;;;;5075427;28;20221;-81
2021/10/15 00:40:55;;;;;;;0.23;0.23;;;9.00;99.90;;;;;;5070276;28;20202;-81
2021/10/15 00:43:20;;;;;;;0.50;0.23;;;9.10;99.90;;;;;;5065421;28;20189;-81
2021/10/15 00:45:46;;;;;;;0.20;0.20;;;9.00;99.90;;;;;;5061175;28;20214;-82
2021/10/15 00:48:11;;;;;;;1.53;0.43;;;9.00;99.90;;;;;;5050497;28;20462;-81
2021/10/15 00:50:37;;;;;;;0.40;0.40;;;8.90;99.90;;;;;;5064408;28;20667;-81
2021/10/15 00:53:03;;;;;;;0.33;0.33;;;9.00;99.90;;;;;;5060217;28;20181;-81
2021/10/15 00:55:30;;;;;;;0.47;0.40;;;9.00;99.90;;;;;;5064468;28;20266;-81
2021/10/15 00:57:56;;;;;;;0.20;0.20;;;8.90;99.90;;;;;;5066412;28;20532;-81
2021/10/15 01:00:21;;;;;;;1.17;0.60;;;8.80;99.90;;;;;;5062626;28;20195;-81
2021/10/15 01:02:47;;;;;;;0.27;0.27;;;8.70;99.90;;;;;;5057629;28;20182;-81
2021/10/15 01:05:13;;;;;;;0.23;0.23;;;8.70;99.90;;;;;;5058161;28;20193;-81
2021/10/15 01:07:39;;;;;;;0.20;0.20;;;8.70;99.90;;;;;;5063160;28;20703;-81
2021/10/15 01:10:05;;;;;;;0.40;0.40;;;8.70;99.90;;;;;;5064915;28;20238;-81
2021/10/15 01:12:32;;;;;;;0.30;0.30;;;8.70;99.90;;;;;;5064107;28;20182;-81
2021/10/15 01:14:58;;;;;;;0.20;0.20;;;8.70;99.90;;;;;;5057636;28;20249;-81
2021/10/15 01:17:23;;;;;;;0.50;0.50;;;8.40;99.90;;;;;;5063585;28;20201;-82
2021/10/15 01:19:54;;;;;;;0.93;0.40;;;8.30;99.90;;;;;;5060509;28;20186;-81
2021/10/15 01:22:19;;;;;;;0.10;0.10;;;8.30;99.90;;;;;;5060756;28;20246;-81
2021/10/15 01:24:45;;;;;;;0.77;0.40;;;8.30;99.90;;;;;;5067592;28;20686;-82
2021/10/15 01:27:11;;;;;;;0.20;0.20;;;8.10;99.90;;;;;;5048919;28;20208;-81
2021/10/15 01:29:38;;;;;;;0.30;0.30;;;8.10;99.90;;;;;;5058820;28;20648;-82
2021/10/15 01:32:06;;;;;;;0.20;0.20;;;8.10;99.90;;;;;;5058450;28;20238;-82
2021/10/15 01:34:32;;;;;;;0.53;0.53;;;8.20;99.90;;;;;;5053293;28;20184;-82
2021/10/15 01:36:57;;;;;;;0.37;0.20;;;8.30;99.90;;;;;;5063033;28;20331;-82
2021/10/15 01:39:23;;;;;;;0.40;0.20;;;8.30;99.90;;;;;;5063696;28;20238;-82
2021/10/15 01:41:49;;;;;;;0.30;0.30;;;8.20;99.90;;;;;;5061830;28;20720;-83
2021/10/15 01:44:15;;;;;;;0.40;0.30;;;8.00;99.90;;;;;;5059114;28;20188;-82
2021/10/15 01:46:41;;;;;;;0.20;0.20;;;7.80;99.90;;;;;;5067299;28;20216;-83
2021/10/15 01:49:06;;;;;;;0.20;0.20;;;7.70;99.90;;;;;;5058036;28;20203;-82
2021/10/15 01:51:32;;;;;;;0.20;0.20;;;7.60;99.90;;;;;;5063316;28;20708;-82
2021/10/15 01:53:57;;;;;;;0.10;0.10;;;7.80;99.90;;;;;;5053755;28;20266;-82
2021/10/15 01:56:23;;;;;;;0.10;0.10;;;7.90;99.90;;;;;;5054843;28;20208;-82
2021/10/15 01:58:49;;;;;;;0.20;0.20;;;8.00;99.90;;;;;;5064171;28;20191;-82
2021/10/15 02:01:14;;;;;;;0.23;0.23;;;8.00;99.90;;;;;;5063170;28;20178;-82
2021/10/15 02:03:40;;;;;;;0.20;0.20;;;8.10;99.90;;;;;;5064885;28;20181;-82
2021/10/15 02:06:06;;;;;;;0.10;0.10;;;8.10;99.90;;;;;;5058394;28;20207;-82
2021/10/15 02:08:32;;;;;;;0.47;0.47;;;8.20;99.90;;;;;;5066029;28;20199;-81
2021/10/15 02:10:58;;;;;;;0.73;0.33;;;8.00;99.90;;;;;;5055165;28;20186;-82
2021/10/15 02:13:23;;;;;;;0.53;0.20;;;7.90;99.90;;;;;;5063070;28;20638;-83
2021/10/15 02:15:49;;;;;;;0.37;0.37;;;8.00;99.90;;;;;;5055867;28;20557;-83
2021/10/15 02:18:16;;;;;;;0.30;0.30;;;8.00;99.90;;;;;;5062291;28;20183;-82
2021/10/15 02:20:43;;;;;;;0.20;0.20;;;8.10;99.90;;;;;;5057368;28;20189;-82
2021/10/15 02:23:08;;;;;;;0.20;0.17;;;8.10;99.90;;;;;;5049584;28;20182;-83
2021/10/15 02:25:34;;;;;;;0.50;0.50;;;8.20;99.90;;;;;;5086971;28;20229;-81
2021/10/15 02:27:59;;;;;;;0.10;0.10;;;8.20;99.90;;;;;;5061303;28;20185;-82
2021/10/15 02:30:26;;;;;;;0.30;0.30;;;8.20;99.90;;;;;;5061646;28;20299;-82
2021/10/15 02:32:52;;;;;;;0.10;0.10;;;8.20;99.90;;;;;;5060493;28;20205;-82
2021/10/15 02:35:18;;;;;;;0.67;0.50;;;8.20;99.90;;;;;;5061022;28;20215;-82
2021/10/15 02:37:45;;;;;;;0.20;0.17;;;8.20;99.90;;;;;;5065944;28;20181;-82
2021/10/15 02:40:11;;;;;;;0.10;0.10;;;8.10;99.90;;;;;;5061444;28;20187;-83
2021/10/15 02:42:37;;;;;;;0.33;0.33;;;8.10;99.90;;;;;;5065223;28;20628;-82
2021/10/15 02:45:04;;;;;;;0.93;0.20;;;8.00;99.90;;;;;;5062778;28;20210;-82
2021/10/15 02:47:29;;;;;;;0.33;0.33;;;7.90;99.90;;;;;;5062782;28;20227;-82
2021/10/15 02:49:55;;;;;;;0.57;0.57;;;7.80;99.90;;;;;;5055585;28;20206;-82
2021/10/15 02:52:21;;;;;;;0.43;0.43;;;7.70;99.90;;;;;;5056779;28;20636;-82
2021/10/15 02:54:46;;;;;;;0.10;0.10;;;7.80;99.90;;;;;;5062527;28;20237;-82
2021/10/15 02:57:12;;;;;;;2.50;0.27;;;7.70;99.90;;;;;;5064231;28;20273;-82
2021/10/15 02:59:38;;;;;;;0.10;0.10;;;7.70;99.90;;;;;;5056597;28;20648;-82
2021/10/15 03:02:04;;;;;;;0.43;0.43;;;7.80;99.90;;;;;;5056885;28;20220;-82
2021/10/15 03:04:29;;;;;;;0.10;0.10;;;7.90;99.90;;;;;;5058718;28;20179;-82
2021/10/15 03:06:55;;;;;;;0.10;0.10;;;8.00;99.90;;;;;;5068067;28;20225;-82
2021/10/15 03:09:20;;;;;;;0.13;0.13;;;8.00;99.90;;;;;;5048066;28;20283;-82
2021/10/15 03:11:46;;;;;;;0.77;0.30;;;8.10;99.90;;;;;;5061563;28;20183;-82
2021/10/15 03:14:12;;;;;;;0.20;0.20;;;8.20;99.90;;;;;;5058598;28;20184;-82
2021/10/15 03:16:37;;;;;;;0.33;0.30;;;8.30;99.90;;;;;;5063999;28;20225;-81
2021/10/15 03:19:03;;;;;;;1.40;0.60;;;8.30;99.90;;;;;;5064164;28;20218;-82
2021/10/15 03:21:28;;;;;;;0.10;0.10;;;8.20;99.90;;;;;;5048172;28;20195;-82
2021/10/15 03:23:54;;;;;;;0.20;0.20;;;8.10;99.90;;;;;;5060678;28;20629;-82
2021/10/15 03:26:19;;;;;;;0.30;0.30;;;7.90;99.90;;;;;;5064922;28;20213;-82
2021/10/15 03:28:45;;;;;;;0.13;0.13;;;8.00;99.90;;;;;;5061863;28;20715;-82
2021/10/15 03:31:10;;;;;;;0.23;0.23;;;8.10;99.90;;;;;;5063553;28;20179;-82
2021/10/15 03:33:36;;;;;;;0.80;0.27;;;8.20;99.90;;;;;;5053218;28;20225;-83
2021/10/15 03:36:03;;;;;;;0.10;0.10;;;8.20;99.90;;;;;;5056862;28;20206;-83
2021/10/15 03:38:29;;;;;;;0.20;0.20;;;8.20;99.90;;;;;;5054771;28;20182;-82
2021/10/15 03:40:54;;;;;;;0.20;0.20;;;8.30;99.90;;;;;;5063301;28;20170;-83
2021/10/15 03:43:20;;;;;;;0.47;0.33;;;8.20;99.90;;;;;;5056191;28;20532;-82
2021/10/15 03:45:45;;;;;;;0.23;0.23;;;8.10;99.90;;;;;;5053473;28;20200;-82
2021/10/15 03:48:11;;;;;;;0.70;0.50;;;8.10;99.90;;;;;;5062206;28;20190;-82
2021/10/15 03:50:37;;;;;;;0.10;0.10;;;7.90;99.90;;;;;;5065366;28;20425;-82
2021/10/15 03:53:03;;;;;;;0.20;0.20;;;7.90;99.90;;;;;;5060124;28;20266;-82
2021/10/15 03:55:28;;;;;;;1.80;0.30;;;8.00;99.90;;;;;;5057934;28;20278;-82
2021/10/15 03:57:54;;;;;;;0.37;0.20;;;8.00;99.90;;;;;;5063946;28;20189;-82
2021/10/15 04:00:20;;;;;;;0.30;0.30;;;7.90;99.90;;;;;;5058542;28;20696;-82
2021/10/15 04:02:46;;;;;;;0.77;0.63;;;8.00;99.90;;;;;;5053699;28;20182;-82
2021/10/15 04:05:12;;;;;;;0.20;0.20;;;8.00;99.90;;;;;;5058740;28;20240;-82
2021/10/15 04:07:38;;;;;;;0.30;0.13;;;8.10;99.90;;;;;;5053388;28;20184;-82
2021/10/15 04:10:06;;;;;;;0.10;0.10;;;8.20;99.90;;;;;;5060808;28;20564;-82
2021/10/15 04:12:32;;;;;;;0.23;0.23;;;8.30;99.90;;;;;;5055547;28;20204;-82
2021/10/15 04:14:58;;;;;;;0.40;0.40;;;8.40;99.90;;;;;;5063691;28;20595;-82
2021/10/15 04:17:23;;;;;;;0.43;0.43;;;8.40;99.90;;;;;;5064078;28;20213;-82
2021/10/15 04:19:49;;;;;;;0.23;0.23;;;8.50;99.90;;;;;;5070520;28;20186;-82
2021/10/15 04:22:15;;;;;;;0.20;0.20;;;8.50;99.90;;;;;;5060863;28;20178;-82
2021/10/15 04:24:41;;;;;;;0.27;0.27;;;8.60;99.90;;;;;;5066103;28;20678;-83
2021/10/15 04:27:07;;;;;;;1.53;0.93;;;8.60;99.90;;;;;;5054142;28;20613;-83
2021/10/15 04:29:33;;;;;;;1.17;0.43;;;8.60;99.90;;;;;;5056549;28;20222;-81
2021/10/15 04:31:59;;;;;;;0.10;0.10;;;8.60;99.90;;;;;;5050349;28;20349;-81
2021/10/15 04:34:24;;;;;;;0.50;0.50;;;8.70;99.90;;;;;;5065295;28;20182;-81
2021/10/15 04:36:50;;;;;;;0.43;0.33;;;8.70;99.90;;;;;;5056909;28;20206;-81
2021/10/15 04:39:15;;;;;;;0.27;0.27;;;8.70;99.90;;;;;;5062588;28;20182;-81
2021/10/15 04:41:41;;;;;;;0.27;0.27;;;8.70;99.90;;;;;;5061272;28;20252;-81
2021/10/15 04:44:07;;;;;;;0.10;0.10;;;8.70;99.90;;;;;;5050818;28;20274;-81
2021/10/15 04:46:33;;;;;;;0.93;0.93;;;8.70;99.90;;;;;;5055509;28;20260;-82
2021/10/15 04:48:59;;;;;;;0.63;0.63;;;8.70;99.90;;;;;;5060872;28;20622;-82
2021/10/15 04:51:25;;;;;;;0.67;0.50;;;8.70;99.90;;;;;;5056553;28;20270;-81
2021/10/15 04:53:50;;;;;;;0.20;0.20;;;8.70;99.90;;;;;;5050709;28;20621;-81
2021/10/15 04:56:16;;;;;;;0.20;0.20;;;8.60;99.90;;;;;;5052079;28;20203;-81
2021/10/15 04:58:41;;;;;;;0.40;0.40;;;8.50;99.90;;;;;;5052208;28;20188;-81
2021/10/15 05:01:07;;;;;;;0.77;0.77;;;8.50;99.90;;;;;;5058141;28;20183;-81
2021/10/15 05:03:33;;;;;;;2.17;0.67;;;8.50;99.90;;;;;;5054297;28;20189;-82
2021/10/15 05:05:58;;;;;;;0.50;0.50;;;8.50;99.90;;;;;;5047559;28;20611;-80
2021/10/15 05:08:30;;;;;;;0.43;0.43;;;8.50;99.90;;;;;;5060019;28;20263;-82
2021/10/15 05:10:55;;;;;;;0.30;0.30;;;8.40;99.90;;;;;;5057625;28;20180;-81
2021/10/15 05:13:21;;;;;;;0.10;0.10;;;8.50;99.90;;;;;;5063662;28;20199;-81
2021/10/15 05:15:47;;;;;;;0.30;0.30;;;8.40;99.90;;;;;;5049366;28;20891;-82
2021/10/15 05:18:14;;;;;;;0.17;0.17;;;8.40;99.90;;;;;;5052222;28;20182;-81
2021/10/15 05:20:41;;;;;;;0.30;0.20;;;8.40;99.90;;;;;;5056496;28;20216;-81
2021/10/15 05:23:07;;;;;;;0.20;0.20;;;8.40;99.90;;;;;;5054035;28;20180;-83
2021/10/15 05:25:34;;;;;;;0.67;0.63;;;8.30;99.90;;;;;;5056075;28;20548;-83
2021/10/15 05:27:59;;;;;;;0.23;0.23;;;8.30;99.90;;;;;;5060525;28;20264;-83
2021/10/15 05:30:26;;;;;;;0.20;0.13;;;8.30;99.90;;;;;;5061461;28;20252;-81
2021/10/15 05:32:52;;;;;;;0.30;0.30;;;8.20;99.90;;;;;;5065732;28;20180;-82
2021/10/15 05:35:18;;;;;;;0.20;0.20;;;8.20;99.90;;;;;;5055593;28;20185;-82
2021/10/15 05:37:44;;;;;;;0.10;0.10;;;8.10;99.90;;;;;;5059901;28;20563;-81
2021/10/15 05:40:11;;;;;;;1.10;0.60;;;7.90;99.90;;;;;;5062653;28;20190;-81
2021/10/15 05:42:36;;;;;;;0.53;0.53;;;8.00;99.90;;;;;;5054220;28;20209;-82
2021/10/15 05:45:02;;;;;;;0.87;0.23;;;8.00;99.90;;;;;;5056041;28;20570;-81
2021/10/15 05:47:28;;;;;;;0.60;0.60;;;8.00;99.90;;;;;;5058990;28;20211;-84
2021/10/15 05:49:53;;;;;;;0.10;0.10;;;8.00;99.90;;;;;;5057422;28;20261;-84
2021/10/15 05:52:33;;;;;;;0.17;0.17;;;8.00;99.90;;;;;;5065506;28;20551;-84
2021/10/15 05:55:16;;;;;;;0.20;0.20;;;8.10;99.90;;;;;;5057490;28;20188;-83
2021/10/15 06:00:27;;;;;;;1.23;0.40;;;8.20;99.90;;;;;;5061750;28;20201;-84
2021/10/15 06:02:53;;;;;;;1.03;0.20;;;8.30;99.90;;;;;;5056891;28;20188;-84
2021/10/15 06:15:42;;;;;;;0.30;0.30;;;8.40;99.90;;;;;;5047361;28;20295;-83
2021/10/15 06:18:22;;;;;;;0.10;0.10;;;8.40;99.90;;;;;;5042021;28;20189;-81
2021/10/15 06:20:51;;;;;;;0.30;0.30;;;8.40;99.90;;;;;;5052071;28;20993;-83
2021/10/15 06:23:19;;;;;;;0.30;0.27;;;8.50;99.90;;;;;;5039545;28;20179;-84
2021/10/15 06:25:45;;;;;;;0.47;0.43;;;8.60;99.90;;;;;;5045415;28;20273;-82
2021/10/15 06:28:11;;;;;;;0.30;0.30;;;8.60;99.90;;;;;;5038786;28;20181;-82
2021/10/15 06:30:39;;;;;;;0.20;0.20;;;8.60;99.90;;;;;;5038675;28;20216;-84
2021/10/15 06:33:05;;;;;;;0.23;0.23;;;8.80;99.90;;;;;;5039931;28;20183;-84
2021/10/15 06:35:30;;;;;;;1.00;1.00;;;8.90;99.90;;;;;;5040959;28;20566;-82
2021/10/15 06:37:56;;;;;;;0.10;0.10;;;8.90;99.90;;;;;;5041688;28;20175;-83
2021/10/15 06:40:22;;;;;;;0.20;0.20;;;9.00;99.90;;;;;;5040808;28;20666;-84
2021/10/15 06:42:48;;;;;;;0.57;0.37;;;9.00;99.90;;;;;;5043773;28;20199;-84
2021/10/15 06:45:14;;;;;;;0.23;0.20;;;9.10;99.90;;;;;;5042833;28;20192;-82
2021/10/15 06:47:40;;;;;;;2.67;0.60;;;9.10;99.90;;;;;;5093204;28;20203;-83
2021/10/15 06:50:06;;;;;;;0.10;0.10;;;9.10;99.90;;;;;;5046649;28;20212;-83
2021/10/15 06:52:49;;;;;;;0.37;0.30;;;9.20;99.90;;;;;;5040981;28;20229;-83
2021/10/15 06:55:20;;;;;;;0.50;0.50;;;9.20;99.90;;;;;;5045387;28;20183;-82
2021/10/15 06:57:47;;;;;;;0.27;0.27;;;9.20;99.90;;;;;;5048814;28;20260;-82
2021/10/15 07:00:14;;;;;;;0.77;0.57;;;9.30;99.90;;;;;;5054034;28;20270;-83
2021/10/15 07:02:41;;;;;;;0.40;0.40;;;9.20;99.90;;;;;;5038865;28;20219;-83
2021/10/15 07:05:08;;;;;;;1.57;1.47;;;9.20;99.90;;;;;;5038641;28;20190;-83
2021/10/15 07:07:33;;;;;;;0.60;0.50;;;9.20;99.90;;;;;;5034971;28;22824;-83
2021/10/15 07:10:00;;;;;;;1.13;0.60;;;9.20;99.90;;;;;;5043738;28;20213;-83
2021/10/15 07:12:46;;;;;;;0.60;0.60;;;9.00;99.90;;;;;;5067671;28;20203;-82
2021/10/15 07:15:14;;;;;;;0.53;0.53;;;9.00;99.90;;;;;;5043644;28;20186;-83
2021/10/15 07:17:40;;;;;;;0.33;0.30;;;9.00;99.90;;;;;;5053643;28;20293;-82
2021/10/15 07:20:07;;;;;;;0.33;0.33;;;9.00;99.90;;;;;;5053584;28;20234;-82
2021/10/15 07:22:33;;;;;;;0.60;0.60;;;9.00;99.90;;;;;;5038079;28;20281;-82
2021/10/15 07:24:59;;;;;;;0.67;0.67;;;9.00;99.90;;;;;;5041166;28;20625;-82
2021/10/15 07:27:24;;;;;;;0.10;0.10;;;9.00;99.90;;;;;;5048339;28;20300;-82
2021/10/15 07:29:50;;;;;;;0.30;0.17;;;9.10;99.90;;;;;;5056901;28;20216;-82
2021/10/15 07:32:16;;;;;;;0.50;0.50;;;9.10;99.90;;;;;;5042413;28;20187;-83
2021/10/15 07:34:41;;;;;;;0.80;0.70;;;9.20;99.90;;;;;;5039474;28;20194;-83
2021/10/15 07:37:07;;;;;;;0.17;0.17;;;9.20;99.90;;;;;;5048607;28;20267;-83
2021/10/15 07:39:32;;;;;;;0.20;0.20;;;9.30;99.90;;;;;;5046116;28;20200;-83
2021/10/15 07:41:58;;;;;;;0.37;0.20;;;9.40;99.90;;;;;;5050688;28;20233;-82
2021/10/15 07:44:24;;;;;;;0.20;0.20;;;9.50;99.90;;;;;;5045066;28;20193;-82
2021/10/15 07:46:49;;;;;;;0.30;0.30;;;9.50;99.90;;;;;;5043059;28;20213;-82
2021/10/15 07:49:15;;;;;;;0.30;0.30;;;9.70;99.90;;;;;;5056389;28;20967;-81
2021/10/15 07:51:41;;;;;;;0.77;0.77;;;9.80;99.90;;;;;;5062846;28;20185;-82
2021/10/15 07:54:06;;;;;;;0.10;0.10;;;9.90;99.90;;;;;;5062604;28;20190;-82
2021/10/15 07:56:34;;;;;;;0.63;0.63;;;9.90;99.90;;;;;;5054125;28;20255;-81
2021/10/15 07:59:00;;;;;;;0.97;0.87;;;10.00;99.90;;;;;;5065450;28;20209;-82
2021/10/15 08:01:26;;;;;;;0.57;0.43;;;10.10;99.90;;;;;;5060560;28;20250;-82
2021/10/15 08:03:52;;;;;;;0.30;0.30;;;10.20;99.90;;;;;;5064158;28;20183;-82
2021/10/15 08:06:19;;;;;;;0.33;0.20;;;10.30;99.90;;;;;;5055645;28;20208;-81
2021/10/15 08:08:44;;;;;;;0.20;0.20;;;10.40;99.90;;;;;;5059856;28;20239;-83
2021/10/15 08:11:11;;;;;;;0.40;0.37;;;10.60;99.90;;;;;;5057869;28;20189;-81
2021/10/15 08:13:37;;;;;;;0.50;0.50;;;10.80;99.90;;;;;;5052280;28;20228;-82
2021/10/15 08:16:04;;;;;;;0.40;0.40;;;11.10;99.90;;;;;;5053444;28;20671;-82
2021/10/15 08:18:30;;;;;;;0.70;0.60;;;11.20;99.90;;;;;;5052336;28;20188;-82
2021/10/15 08:20:58;;;;;;;1.37;0.80;;;11.30;99.90;;;;;;5061522;28;20179;-82
2021/10/15 08:23:25;;;;;;;0.10;0.10;;;11.40;99.90;;;;;;5065258;28;20185;-82
2021/10/15 08:25:51;;;;;;;0.20;0.20;;;11.50;99.90;;;;;;5064546;28;20205;-82
2021/10/15 08:28:17;;;;;;;0.30;0.30;;;11.60;99.90;;;;;;5064666;28;20200;-82
2021/10/15 08:30:42;;;;;;;0.33;0.33;;;11.80;99.90;;;;;;5048862;28;20217;-82
2021/10/15 08:33:08;;;;;;;0.40;0.40;;;12.00;99.90;;;;;;5052732;28;20212;-82
2021/10/15 08:35:34;;;;;;;0.20;0.20;;;12.10;99.90;;;;;;5044055;28;20202;-82
2021/10/15 08:37:59;;;;;;;1.43;0.40;;;12.10;99.90;;;;;;5068969;28;20185;-82
2021/10/15 08:40:27;;;;;;;1.00;0.93;;;12.10;99.90;;;;;;5048568;28;20200;-82
2021/10/15 08:42:56;;;;;;;1.07;1.07;;;12.10;99.90;;;;;;5049806;28;20280;-83
2021/10/15 08:45:24;;;;;;;0.67;0.63;;;12.00;99.90;;;;;;5050162;28;20363;-82
2021/10/15 08:47:49;;;;;;;0.20;0.20;;;11.80;99.90;;;;;;5058548;28;20666;-82
2021/10/15 08:50:15;;;;;;;0.67;0.63;;;11.80;99.90;;;;;;5059100;28;20213;-82
2021/10/15 08:52:41;;;;;;;0.77;0.30;;;11.90;99.90;;;;;;5058067;28;20193;-82
2021/10/15 08:55:07;;;;;;;0.47;0.43;;;11.90;99.90;;;;;;5050275;28;20226;-83
2021/10/15 08:57:32;;;;;;;0.20;0.20;;;11.90;99.90;;;;;;5044995;28;20221;-82
2021/10/15 08:59:58;;;;;;;0.87;0.50;;;11.90;99.90;;;;;;5048594;28;20183;-82
2021/10/15 09:02:25;;;;;;;0.47;0.47;;;11.90;99.90;;;;;;5046747;28;20267;-83
2021/10/15 09:04:58;;;;;;;0.50;0.50;;;11.80;99.90;;;;;;5053104;28;20275;-82
2021/10/15 09:07:26;;;;;;;0.40;0.40;;;11.70;99.90;;;;;;5056677;28;20209;-83
2021/10/15 09:10:18;;;;;;;0.60;0.60;;;11.70;99.90;;;;;;5059808;28;20236;-83
2021/10/15 09:12:56;;;;;;;0.57;0.57;;;11.80;99.90;;;;;;5065421;28;20183;-82
2021/10/15 09:15:31;;;;;;;0.40;0.40;;;11.90;99.90;;;;;;5061457;28;20189;-82
2021/10/15 09:17:57;;;;;;;0.50;0.50;;;11.80;99.90;;;;;;5060145;28;20181;-83
2021/10/15 09:20:31;;;;;;;0.40;0.40;;;11.90;99.90;;;;;;5046659;28;20196;-82
2021/10/15 09:22:57;;;;;;;0.70;0.70;;;11.90;99.90;;;;;;5061629;28;20189;-81
2021/10/15 09:25:32;;;;;;;1.23;0.53;;;11.90;99.90;;;;;;5059500;28;20681;-80
2021/10/15 09:27:58;;;;;;;0.50;0.50;;;11.80;99.90;;;;;;5046312;28;20195;-81
2021/10/15 09:30:28;;;;;;;0.73;0.50;;;11.90;99.90;;;;;;5054617;28;20205;-81
2021/10/15 09:32:57;;;;;;;0.97;0.97;;;12.00;99.90;;;;;;5038638;28;20189;-81
2021/10/15 09:35:28;;;;;;;1.70;0.63;;;12.00;99.90;;;;;;5053734;28;20197;-80
2021/10/15 09:38:00;;;;;;;0.50;0.50;;;12.00;99.90;;;;;;5041172;28;20180;-80
2021/10/15 09:40:34;;;;;;;3.03;0.67;;;12.00;99.90;;;;;;5050683;28;20173;-80
2021/10/15 09:43:03;;;;;;;0.40;0.40;;;12.10;99.90;;;;;;5042498;28;20242;-80
2021/10/15 09:45:40;;;;;;;0.37;0.20;;;12.10;99.90;;;;;;5043310;28;20178;-81
2021/10/15 09:48:36;;;;;;;0.50;0.50;;;12.30;99.90;;;;;;5046837;28;20189;-82
2021/10/15 09:51:20;;;;;;;0.50;0.50;;;12.50;99.90;;;;;;5041511;28;20200;-82
2021/10/15 09:54:12;;;;;;;0.20;0.20;;;12.70;99.90;;;;;;5080932;28;20190;-82
2021/10/15 09:56:39;;;;;;;0.50;0.40;;;12.80;99.90;;;;;;5048447;28;20194;-82
2021/10/15 09:59:06;;;;;;;3.53;0.47;;;12.90;99.90;;;;;;5055783;28;20195;-82
2021/10/15 10:01:37;;;;;;;0.40;0.40;;;12.90;99.90;;;;;;5056798;28;20225;-82
2021/10/15 10:04:05;;;;;;;0.60;0.37;;;13.20;99.90;;;;;;5045943;28;20612;-82
2021/10/15 10:06:31;;;;;;;0.93;0.90;;;13.20;99.90;;;;;;5039589;28;20233;-82
2021/10/15 10:09:01;;;;;;;0.33;0.33;;;13.20;99.90;;;;;;5043994;28;20208;-82
2021/10/15 10:11:30;;;;;;;0.90;0.87;;;13.20;99.90;;;;;;5041494;28;20182;-83
2021/10/15 10:13:56;;;;;;;0.30;0.30;;;13.20;99.90;;;;;;5045741;28;20184;-82
2021/10/15 10:16:25;;;;;;;1.40;0.50;;;13.30;99.90;;;;;;5048309;28;20750;-82
2021/10/15 10:18:55;;;;;;;0.43;0.43;;;13.40;99.90;;;;;;5049748;28;20206;-82
2021/10/15 10:21:25;;;;;;;0.60;0.60;;;13.40;99.90;;;;;;5052822;28;20202;-82
2021/10/15 10:24:06;;;;;;;1.30;1.20;;;13.40;99.90;;;;;;5049458;28;20192;-83
2021/10/15 10:26:46;;;;;;;0.83;0.83;;;13.40;99.90;;;;;;5041615;28;20210;-82
2021/10/15 10:29:12;;;;;;;2.73;1.27;;;13.40;99.90;;;;;;5051074;28;20685;-83
2021/10/15 10:31:38;;;;;;;0.70;0.63;;;13.70;99.90;;;;;;5046900;28;20177;-83
2021/10/15 10:34:07;;;;;;;0.73;0.73;;;13.90;99.90;;;;;;5054389;28;20201;-83
2021/10/15 10:36:35;;;;;;;1.17;0.60;;;14.10;99.90;;;;;;5085865;28;20215;-83
2021/10/15 10:39:21;;;;;;;1.13;1.13;;;14.20;99.90;;;;;;5050175;28;20217;-83
2021/10/15 10:42:04;;;;;;;0.30;0.30;;;14.50;99.90;;;;;;5038779;28;20200;-83
2021/10/15 10:44:34;;;;;;;1.37;0.60;;;14.50;99.90;;;;;;5053498;28;20189;-83
2021/10/15 10:47:11;;;;;;;0.50;0.47;;;14.50;99.90;;;;;;5046179;28;20292;-83
2021/10/15 10:49:37;;;;;;;0.40;0.40;;;14.50;99.90;;;;;;5039313;28;20286;-82
2021/10/15 10:52:10;;;;;;;1.90;0.93;;;14.60;99.90;;;;;;5044655;28;20270;-83
2021/10/15 10:54:37;;;;;;;3.10;1.03;;;14.80;99.90;;;;;;5055342;28;20214;-83
2021/10/15 10:57:19;;;;;;;2.00;1.47;;;14.90;99.90;;;;;;5051078;28;20551;-82
2021/10/15 10:59:46;;;;;;;0.83;0.73;;;15.10;99.90;;;;;;5058000;28;20192;-83
2021/10/15 11:02:11;;;;;;;1.00;0.87;;;15.30;99.90;;;;;;5055348;28;20268;-83
2021/10/15 11:04:48;;;;;;;0.50;0.50;;;15.40;99.90;;;;;;5053643;28;20210;-83
2021/10/15 11:07:16;;;;;;;1.13;0.50;;;15.50;99.90;;;;;;5060270;28;20232;-83
2021/10/15 11:09:58;;;;;;;0.63;0.50;;;15.60;99.90;;;;;;5059034;28;20207;-83
2021/10/15 11:12:27;;;;;;;0.33;0.33;;;15.60;99.90;;;;;;5060465;28;20664;-83
2021/10/15 11:15:14;;;;;;;0.73;0.73;;;15.70;99.90;;;;;;5059933;28;20201;-83
2021/10/15 11:17:49;;;;;;;0.37;0.37;;;15.60;99.90;;;;;;5045970;28;20281;-82
2021/10/15 11:20:19;;;;;;;2.53;0.53;;;15.70;99.90;;;;;;5055978;28;20546;-83
2021/10/15 11:22:58;;;;;;;0.20;0.20;;;15.90;99.90;;;;;;5049559;28;20186;-83
2021/10/15 11:25:31;;;;;;;0.70;0.67;;;15.90;99.90;;;;;;5044699;28;20229;-82
2021/10/15 11:28:04;;;;;;;1.03;0.90;;;15.90;99.90;;;;;;5040716;28;20184;-83
2021/10/15 11:30:34;;;;;;;0.73;0.70;;;16.00;99.90;;;;;;5053758;28;20299;-82
2021/10/15 11:33:01;;;;;;;0.30;0.30;;;16.00;99.90;;;;;;5087558;28;20171;-83
2021/10/15 11:35:35;;;;;;;0.40;0.40;;;16.20;99.90;;;;;;5044998;28;20186;-83
2021/10/15 11:38:07;;;;;;;0.93;0.60;;;16.20;99.90;;;;;;5070852;28;20541;-82
2021/10/15 11:40:39;;;;;;;0.50;0.50;;;16.30;99.90;;;;;;5047121;28;20201;-83
2021/10/15 11:43:20;;;;;;;0.17;0.17;;;16.30;99.90;;;;;;5057794;28;20682;-84
2021/10/15 11:45:57;;;;;;;0.27;0.27;;;16.50;99.90;;;;;;5050150;28;20211;-83
2021/10/15 11:48:37;;;;;;;1.23;0.57;;;16.60;99.90;;;;;;5046872;28;20464;-84
2021/10/15 11:51:14;;;;;;;1.50;0.40;;;16.80;99.90;;;;;;5035896;28;20239;-82
2021/10/15 11:53:46;;;;;;;0.40;0.40;;;16.70;99.90;;;;;;5040074;28;20184;-83
2021/10/15 11:56:16;;;;;;;0.47;0.40;;;16.50;99.90;;;;;;5035100;28;20575;-83
2021/10/15 11:58:46;;;;;;;0.40;0.40;;;16.40;99.90;;;;;;5041367;28;20217;-82
2021/10/15 12:01:29;;;;;;;0.77;0.47;;;16.50;99.90;;;;;;5035407;28;20187;-83
2021/10/15 12:04:05;;;;;;;0.63;0.60;;;16.50;99.90;;;;;;5049911;28;20267;-83
2021/10/15 12:06:40;;;;;;;1.27;1.00;;;16.40;99.90;;;;;;5032866;28;20291;-82
2021/10/15 12:09:11;;;;;;;0.40;0.40;;;16.40;99.90;;;;;;5038847;28;20539;-82
2021/10/15 12:11:38;;;;;;;0.80;0.53;;;16.50;99.90;;;;;;5034397;28;20267;-82
2021/10/15 12:14:24;;;;;;;0.47;0.40;;;16.60;99.90;;;;;;5051759;28;20202;-83
2021/10/15 12:16:53;;;;;;;1.43;1.33;;;16.70;99.90;;;;;;5040580;28;20432;-82
2021/10/15 12:19:25;;;;;;;2.37;0.90;;;16.60;99.90;;;;;;5045482;28;20289;-82
2021/10/15 12:22:16;;;;;;;0.57;0.57;;;16.60;99.90;;;;;;5043608;28;20185;-82
2021/10/15 12:24:50;;;;;;;0.23;0.23;;;16.70;99.90;;;;;;5035513;28;20203;-82
2021/10/15 12:27:20;;;;;;;0.30;0.20;;;16.60;99.90;;;;;;5041758;28;20537;-83
2021/10/15 12:29:54;;;;;;;3.00;0.40;;;16.60;99.90;;;;;;5056216;28;20211;-82
2021/10/15 12:32:20;;;;;;;0.47;0.47;;;16.70;99.90;;;;;;5044793;28;20192;-82
2021/10/15 12:35:13;;;;;;;0.10;0.10;;;16.50;99.90;;;;;;5041057;28;20197;-83
2021/10/15 12:37:51;;;;;;;0.20;0.20;;;16.40;99.90;;;;;;5037589;28;20185;-82
2021/10/15 12:40:32;;;;;;;0.30;0.30;;;16.40;99.90;;;;;;5044572;28;20205;-83
2021/10/15 12:43:06;;;;;;;0.20;0.20;;;16.50;99.90;;;;;;5062341;28;20191;-82
2021/10/15 12:45:50;;;;;;;0.20;0.20;;;16.40;99.90;;;;;;5042303;28;20240;-83
2021/10/15 12:48:22;;;;;;;4.23;0.70;;;16.40;99.90;;;;;;5038107;28;20197;-83
2021/10/15 12:51:09;;;;;;;1.23;0.70;;;16.30;99.90;;;;;;5045428;28;20254;-82
2021/10/15 12:53:43;;;;;;;0.57;0.53;;;16.30;99.90;;;;;;5045971;28;20237;-82
2021/10/15 12:56:41;;;;;;;0.30;0.30;;;16.40;99.90;;;;;;5052144;28;20208;-82
2021/10/15 12:59:17;;;;;;;2.77;0.37;;;16.40;99.90;;;;;;5052273;28;20453;-82
2021/10/15 13:01:43;;;;;;;1.40;0.60;;;16.30;99.90;;;;;;5046205;28;20239;-82
2021/10/15 13:04:09;;;;;;;0.40;0.40;;;16.30;99.90;;;;;;5048064;28;20189;-83
2021/10/15 13:06:34;;;;;;;0.60;0.60;;;16.20;99.90;;;;;;5047223;28;20200;-83
2021/10/15 13:09:02;;;;;;;0.27;0.27;;;16.20;99.90;;;;;;5050229;28;20686;-82
2021/10/15 13:11:28;;;;;;;0.40;0.40;;;16.10;99.90;;;;;;5052855;28;20173;-82
2021/10/15 13:13:55;;;;;;;0.30;0.30;;;16.00;99.90;;;;;;5054622;28;20192;-82